Time;durP1;ratioP1;P1;durP2;ratioP2;P2;SDS_P1;SDS_P2;PMS_P1;PMS_P2;Temp;Humidity;BMP_temperature;BMP_pressure;BME280_temperature;BME280_humidity;BME280_pressure;Samples;Min_cycle;Max_cycle;Signal;HPM_P1;HPM_P2
2022/07/06 00:01:39;;;;;;;7.00;1.60;;;;;;;;;;5064985;28;20047;-69
2022/07/06 00:04:05;;;;;;;5.05;1.45;;;;;;;;;;5084412;28;20090;-70
2022/07/06 00:06:32;;;;;;;5.50;1.35;;;;;;;;;;5065419;28;20057;-71
2022/07/06 00:08:58;;;;;;;4.82;1.10;;;;;;;;;;5097218;28;20131;-70
2022/07/06 00:11:24;;;;;;;4.82;1.20;;;;;;;;;;5066614;28;20047;-70
2022/07/06 00:13:50;;;;;;;5.57;1.58;;;;;;;;;;5081586;28;20040;-70
2022/07/06 00:16:17;;;;;;;2.92;1.23;;;;;;;;;;5071656;28;20061;-70
2022/07/06 00:18:43;;;;;;;4.60;1.00;;;;;;;;;;5064613;28;20037;-70
2022/07/06 00:21:09;;;;;;;4.85;1.17;;;;;;;;;;5065215;28;20056;-71
2022/07/06 00:23:35;;;;;;;4.00;0.90;;;;;;;;;;5082164;28;20045;-71
2022/07/06 00:26:02;;;;;;;3.78;1.10;;;;;;;;;;5080504;28;20048;-71
2022/07/06 00:28:28;;;;;;;8.02;2.05;;;;;;;;;;5064806;28;20562;-71
2022/07/06 00:30:54;;;;;;;4.40;1.17;;;;;;;;;;5084918;28;20040;-71
2022/07/06 00:33:20;;;;;;;6.30;1.27;;;;;;;;;;5092075;28;20127;-71
2022/07/06 00:35:46;;;;;;;4.25;1.10;;;;;;;;;;5065053;28;20076;-71
2022/07/06 00:38:12;;;;;;;5.93;1.17;;;;;;;;;;5064850;28;20060;-71
2022/07/06 00:40:38;;;;;;;4.10;1.23;;;;;;;;;;5064978;28;20045;-71
2022/07/06 00:43:05;;;;;;;5.47;1.20;;;;;;;;;;5079823;28;20048;-71
2022/07/06 00:45:31;;;;;;;10.45;1.42;;;;;;;;;;5079931;28;20118;-71
2022/07/06 00:47:57;;;;;;;6.97;2.00;;;;;;;;;;5064000;28;20041;-70
2022/07/06 00:50:23;;;;;;;8.68;1.40;;;;;;;;;;5064698;28;20055;-71
2022/07/06 00:52:49;;;;;;;3.42;0.95;;;;;;;;;;5067648;28;20044;-71
2022/07/06 00:55:18;;;;;;;2.45;0.98;;;;;;;;;;5074973;28;20051;-71
2022/07/06 00:57:44;;;;;;;4.70;1.80;;;;;;;;;;5080665;28;20036;-71
2022/07/06 01:00:12;;;;;;;5.05;1.60;;;;;;;;;;5070457;28;20128;-71
2022/07/06 01:02:38;;;;;;;7.97;0.95;;;;;;;;;;5063502;28;20045;-71
2022/07/06 01:05:05;;;;;;;3.42;1.20;;;;;;;;;;5079711;28;20053;-71
2022/07/06 01:07:32;;;;;;;6.05;1.30;;;;;;;;;;5064933;28;20428;-71
2022/07/06 01:09:58;;;;;;;5.60;1.30;;;;;;;;;;5077843;28;20037;-71
2022/07/06 01:12:24;;;;;;;3.03;1.52;;;;;;;;;;5066935;28;20074;-72
2022/07/06 01:14:51;;;;;;;4.50;1.50;;;;;;;;;;5066637;28;20104;-71
2022/07/06 01:17:20;;;;;;;3.75;1.05;;;;;;;;;;5063618;28;20124;-71
2022/07/06 01:19:46;;;;;;;5.38;1.67;;;;;;;;;;5069665;28;20036;-71
2022/07/06 01:22:12;;;;;;;4.38;1.15;;;;;;;;;;5084686;28;20055;-71
2022/07/06 01:25:16;;;;;;;8.80;1.77;;;;;;;;;;5074326;28;20055;-72
2022/07/06 01:27:42;;;;;;;10.95;1.70;;;;;;;;;;5071372;28;20120;-72
2022/07/06 01:30:10;;;;;;;5.32;1.33;;;;;;;;;;5064355;28;20036;-71
2022/07/06 01:32:36;;;;;;;2.75;1.60;;;;;;;;;;5076451;28;20071;-71
2022/07/06 01:35:03;;;;;;;8.27;1.65;;;;;;;;;;5069546;28;20041;-71
2022/07/06 01:37:29;;;;;;;4.75;1.50;;;;;;;;;;5079761;28;20083;-71
2022/07/06 01:39:58;;;;;;;5.13;1.48;;;;;;;;;;5064377;28;20277;-71
2022/07/06 01:42:24;;;;;;;7.50;1.33;;;;;;;;;;5088343;28;20055;-71
2022/07/06 01:44:50;;;;;;;3.45;1.13;;;;;;;;;;5076486;28;20052;-71
2022/07/06 01:47:16;;;;;;;6.55;1.40;;;;;;;;;;5067633;28;20043;-71
2022/07/06 01:49:43;;;;;;;6.43;1.50;;;;;;;;;;5072189;28;20049;-71
2022/07/06 01:52:09;;;;;;;7.75;2.83;;;;;;;;;;5063854;28;20092;-71
2022/07/06 01:54:35;;;;;;;3.25;1.20;;;;;;;;;;5081240;28;20045;-71
2022/07/06 01:57:01;;;;;;;3.75;1.42;;;;;;;;;;5079430;28;20052;-71
2022/07/06 01:59:27;;;;;;;4.85;1.27;;;;;;;;;;5072690;28;20043;-71
2022/07/06 02:01:53;;;;;;;4.90;1.50;;;;;;;;;;5083027;28;20056;-70
2022/07/06 02:04:19;;;;;;;6.05;2.15;;;;;;;;;;5083531;28;20144;-71
2022/07/06 02:06:45;;;;;;;5.38;1.52;;;;;;;;;;5082745;28;20056;-71
2022/07/06 02:09:12;;;;;;;3.03;1.08;;;;;;;;;;5081102;28;20068;-71
2022/07/06 02:11:38;;;;;;;4.65;1.27;;;;;;;;;;5085511;28;20052;-71
2022/07/06 02:14:04;;;;;;;5.47;1.48;;;;;;;;;;5084956;28;20048;-71
2022/07/06 02:16:30;;;;;;;8.15;1.80;;;;;;;;;;5077457;28;20481;-71
2022/07/06 02:18:56;;;;;;;11.07;1.70;;;;;;;;;;5065900;28;20049;-71
2022/07/06 02:21:22;;;;;;;8.60;1.83;;;;;;;;;;5083676;28;20055;-71
2022/07/06 02:23:48;;;;;;;8.32;1.20;;;;;;;;;;5067158;28;20045;-71
2022/07/06 02:26:14;;;;;;;4.70;1.25;;;;;;;;;;5079095;28;20049;-71
2022/07/06 02:28:40;;;;;;;5.30;1.30;;;;;;;;;;5076108;28;20064;-71
2022/07/06 02:31:07;;;;;;;5.63;1.10;;;;;;;;;;5080776;28;20113;-72
2022/07/06 02:33:33;;;;;;;6.20;1.20;;;;;;;;;;5069611;28;20134;-71
2022/07/06 02:35:59;;;;;;;7.53;1.15;;;;;;;;;;5067193;28;20052;-71
2022/07/06 02:38:25;;;;;;;5.28;1.20;;;;;;;;;;5074568;28;20069;-71
2022/07/06 02:40:51;;;;;;;6.50;1.70;;;;;;;;;;5067158;28;20056;-72
2022/07/06 02:43:17;;;;;;;6.03;1.48;;;;;;;;;;5073815;28;20037;-71
2022/07/06 02:45:43;;;;;;;6.65;1.52;;;;;;;;;;5079124;28;20048;-71
2022/07/06 02:48:09;;;;;;;5.40;1.80;;;;;;;;;;5068010;28;20033;-71
2022/07/06 02:50:35;;;;;;;3.25;1.02;;;;;;;;;;5070770;28;20055;-71
2022/07/06 02:53:01;;;;;;;3.65;1.20;;;;;;;;;;5074332;28;20044;-71
2022/07/06 02:55:27;;;;;;;9.45;1.40;;;;;;;;;;5066887;28;20428;-71
2022/07/06 02:57:54;;;;;;;6.88;1.27;;;;;;;;;;5066914;28;20152;-71
2022/07/06 03:00:20;;;;;;;8.95;1.70;;;;;;;;;;5072401;28;20055;-71
2022/07/06 03:02:46;;;;;;;7.97;1.75;;;;;;;;;;5077718;28;20057;-71
2022/07/06 03:05:12;;;;;;;9.38;1.58;;;;;;;;;;5066242;28;20052;-71
2022/07/06 03:07:38;;;;;;;11.70;2.00;;;;;;;;;;5081817;28;20045;-71
2022/07/06 03:10:05;;;;;;;10.57;1.75;;;;;;;;;;5081790;28;20103;-71
2022/07/06 03:12:31;;;;;;;7.32;1.80;;;;;;;;;;5081827;28;20052;-71
2022/07/06 03:14:57;;;;;;;10.75;1.75;;;;;;;;;;5066295;28;20516;-71
2022/07/06 03:17:23;;;;;;;4.57;1.95;;;;;;;;;;5065767;28;20045;-71
2022/07/06 03:19:49;;;;;;;5.07;1.40;;;;;;;;;;5078229;28;20037;-71
2022/07/06 03:22:15;;;;;;;8.00;1.77;;;;;;;;;;5090695;28;20128;-71
2022/07/06 03:24:41;;;;;;;6.97;1.92;;;;;;;;;;5078255;28;20040;-72
2022/07/06 03:27:07;;;;;;;3.95;1.40;;;;;;;;;;5079050;28;20063;-72
2022/07/06 03:29:33;;;;;;;10.63;2.08;;;;;;;;;;5089374;28;20496;-71
2022/07/06 03:32:00;;;;;;;4.15;2.00;;;;;;;;;;5087497;28;20047;-71
2022/07/06 03:34:26;;;;;;;10.00;1.83;;;;;;;;;;5066026;28;20060;-71
2022/07/06 03:36:52;;;;;;;5.32;1.83;;;;;;;;;;5066211;28;20099;-72
2022/07/06 03:39:18;;;;;;;2.20;1.20;;;;;;;;;;5070268;28;20060;-71
2022/07/06 03:41:44;;;;;;;8.48;2.05;;;;;;;;;;5092328;28;20040;-71
2022/07/06 03:44:10;;;;;;;10.45;2.40;;;;;;;;;;5072893;28;20040;-71
2022/07/06 03:46:36;;;;;;;10.43;2.00;;;;;;;;;;5065408;28;20100;-71
2022/07/06 03:49:02;;;;;;;4.35;1.80;;;;;;;;;;5065728;28;20044;-72
2022/07/06 03:51:28;;;;;;;5.65;1.48;;;;;;;;;;5080468;28;20051;-71
2022/07/06 03:53:55;;;;;;;5.70;1.45;;;;;;;;;;5065806;28;20048;-71
2022/07/06 03:56:30;;;;;;;7.07;1.85;;;;;;;;;;5065781;28;20128;-70
2022/07/06 03:59:00;;;;;;;4.00;1.33;;;;;;;;;;5066712;28;20053;-72
2022/07/06 04:01:26;;;;;;;6.25;1.08;;;;;;;;;;5075061;28;20048;-71
2022/07/06 04:03:52;;;;;;;3.55;1.02;;;;;;;;;;5083370;28;20080;-71
2022/07/06 04:06:18;;;;;;;5.40;1.20;;;;;;;;;;5098284;28;20048;-71
2022/07/06 04:08:44;;;;;;;6.68;1.55;;;;;;;;;;5085661;28;20048;-71
2022/07/06 04:11:11;;;;;;;3.50;1.15;;;;;;;;;;5094501;28;20048;-71
2022/07/06 04:13:38;;;;;;;7.07;1.10;;;;;;;;;;5081545;28;20052;-71
2022/07/06 04:16:05;;;;;;;5.75;1.55;;;;;;;;;;5090250;28;20036;-71
2022/07/06 04:18:31;;;;;;;4.97;1.35;;;;;;;;;;5084146;28;20052;-71
2022/07/06 04:20:57;;;;;;;8.95;1.73;;;;;;;;;;5083110;28;20036;-71
2022/07/06 04:23:23;;;;;;;7.85;1.40;;;;;;;;;;5076225;28;20040;-71
2022/07/06 04:25:50;;;;;;;4.22;1.17;;;;;;;;;;5077515;28;20220;-71
2022/07/06 04:28:16;;;;;;;8.35;1.33;;;;;;;;;;5064940;28;20116;-71
2022/07/06 04:30:42;;;;;;;5.47;1.30;;;;;;;;;;5065099;28;20052;-72
2022/07/06 04:33:08;;;;;;;9.32;1.48;;;;;;;;;;5064545;28;20108;-71
2022/07/06 04:35:34;;;;;;;5.97;1.13;;;;;;;;;;5064974;28;20059;-71
2022/07/06 04:38:00;;;;;;;4.70;1.25;;;;;;;;;;5094358;28;20040;-71
2022/07/06 04:40:26;;;;;;;6.15;1.20;;;;;;;;;;5090779;28;20050;-71
2022/07/06 04:42:53;;;;;;;3.58;1.23;;;;;;;;;;5065252;28;20082;-71
2022/07/06 04:45:19;;;;;;;3.05;0.93;;;;;;;;;;5064758;28;20076;-71
2022/07/06 04:47:45;;;;;;;3.55;1.00;;;;;;;;;;5070201;28;20047;-72
2022/07/06 04:50:11;;;;;;;4.10;1.10;;;;;;;;;;5085560;28;20065;-71
2022/07/06 04:52:38;;;;;;;1.00;0.73;;;;;;;;;;5079979;28;20045;-71
2022/07/06 04:55:05;;;;;;;2.38;0.85;;;;;;;;;;5065748;28;20045;-72
2022/07/06 04:57:32;;;;;;;3.65;1.25;;;;;;;;;;5064627;28;20176;-71
2022/07/06 04:59:58;;;;;;;4.35;0.90;;;;;;;;;;5064676;28;20067;-71
2022/07/06 05:02:24;;;;;;;4.65;0.98;;;;;;;;;;5063915;28;20055;-71
2022/07/06 05:04:50;;;;;;;5.45;0.68;;;;;;;;;;5064469;28;20053;-71
2022/07/06 05:07:16;;;;;;;2.85;0.80;;;;;;;;;;5068809;28;20037;-71
2022/07/06 05:09:42;;;;;;;5.22;0.80;;;;;;;;;;5078674;28;20115;-71
2022/07/06 05:12:09;;;;;;;3.63;1.00;;;;;;;;;;5064276;28;20037;-72
2022/07/06 05:14:36;;;;;;;8.98;0.70;;;;;;;;;;5089206;28;20084;-72
2022/07/06 05:17:02;;;;;;;2.07;0.80;;;;;;;;;;5063821;28;20396;-72
2022/07/06 05:19:28;;;;;;;4.75;0.80;;;;;;;;;;5073230;28;20052;-71
2022/07/06 05:21:54;;;;;;;5.75;0.90;;;;;;;;;;5070222;28;20080;-71
2022/07/06 05:24:21;;;;;;;5.97;1.23;;;;;;;;;;5077368;28;20124;-71
2022/07/06 05:26:47;;;;;;;4.40;0.60;;;;;;;;;;5064304;28;20041;-70
2022/07/06 05:29:13;;;;;;;4.15;0.82;;;;;;;;;;5064234;28;20041;-71
2022/07/06 05:31:39;;;;;;;5.68;0.88;;;;;;;;;;5082103;28;20305;-71
2022/07/06 05:34:06;;;;;;;3.83;0.75;;;;;;;;;;5069484;28;20056;-71
2022/07/06 05:36:32;;;;;;;2.65;1.08;;;;;;;;;;5078023;28;20048;-71
2022/07/06 05:39:01;;;;;;;3.75;1.20;;;;;;;;;;5082452;28;20044;-71
2022/07/06 05:41:27;;;;;;;6.82;0.98;;;;;;;;;;5082217;28;20064;-71
2022/07/06 05:43:53;;;;;;;6.35;1.40;;;;;;;;;;5074134;28;20041;-71
2022/07/06 05:46:19;;;;;;;6.50;1.30;;;;;;;;;;5066251;28;20456;-71
2022/07/06 05:51:30;;;;;;;5.32;1.33;;;;;;;;;;5064310;28;20049;-71
2022/07/06 05:53:57;;;;;;;5.78;1.70;;;;;;;;;;5080051;28;20128;-69
2022/07/06 05:56:23;;;;;;;8.18;1.67;;;;;;;;;;5068236;28;20049;-70
2022/07/06 05:58:49;;;;;;;3.80;1.20;;;;;;;;;;5091094;28;20063;-70
2022/07/06 06:01:15;;;;;;;5.47;1.13;;;;;;;;;;5070112;28;20059;-68
2022/07/06 06:03:41;;;;;;;7.47;1.15;;;;;;;;;;5069876;28;20052;-68
2022/07/06 06:06:07;;;;;;;6.45;1.17;;;;;;;;;;5077001;28;20041;-68
2022/07/06 06:08:33;;;;;;;6.65;0.95;;;;;;;;;;5070876;28;20475;-69
2022/07/06 06:10:59;;;;;;;4.32;0.90;;;;;;;;;;5090340;28;20128;-69
2022/07/06 06:13:25;;;;;;;8.98;1.70;;;;;;;;;;5086387;28;21172;-69
2022/07/06 06:15:51;;;;;;;4.60;1.33;;;;;;;;;;5099666;28;20052;-69
2022/07/06 06:18:18;;;;;;;5.90;1.00;;;;;;;;;;5095089;28;20076;-68
2022/07/06 06:20:45;;;;;;;8.05;1.10;;;;;;;;;;5079795;28;20123;-69
2022/07/06 06:23:11;;;;;;;6.68;1.00;;;;;;;;;;5081441;28;20045;-68
2022/07/06 06:25:38;;;;;;;5.90;0.90;;;;;;;;;;5081903;28;20058;-68
2022/07/06 06:28:05;;;;;;;7.47;1.03;;;;;;;;;;5092366;28;20117;-68
2022/07/06 06:30:32;;;;;;;7.30;0.90;;;;;;;;;;5085959;28;20313;-68
2022/07/06 06:33:08;;;;;;;5.97;1.02;;;;;;;;;;5086010;28;20050;-68
2022/07/06 06:35:34;;;;;;;5.80;1.10;;;;;;;;;;5086514;28;20058;-68
2022/07/06 06:38:00;;;;;;;4.93;1.65;;;;;;;;;;5086664;28;20040;-68
2022/07/06 06:40:26;;;;;;;9.15;1.00;;;;;;;;;;5085399;28;20510;-69
2022/07/06 06:42:52;;;;;;;4.00;0.75;;;;;;;;;;5085983;28;20048;-69
2022/07/06 06:45:18;;;;;;;7.28;1.13;;;;;;;;;;5084977;28;20113;-69
2022/07/06 06:47:45;;;;;;;4.05;1.13;;;;;;;;;;5083570;28;20062;-69
2022/07/06 06:50:11;;;;;;;7.88;1.55;;;;;;;;;;5086679;28;20112;-69
2022/07/06 06:52:37;;;;;;;4.72;0.77;;;;;;;;;;5088706;28;20089;-69
2022/07/06 06:55:03;;;;;;;5.50;0.95;;;;;;;;;;5079300;28;20119;-69
2022/07/06 06:57:29;;;;;;;3.80;0.90;;;;;;;;;;5083925;28;20113;-69
2022/07/06 06:59:55;;;;;;;4.40;0.98;;;;;;;;;;5086297;28;20075;-69
2022/07/06 07:02:21;;;;;;;6.22;0.95;;;;;;;;;;5084902;28;20523;-68
2022/07/06 07:04:48;;;;;;;5.25;1.13;;;;;;;;;;5085151;28;20123;-68
2022/07/06 07:07:14;;;;;;;4.35;0.73;;;;;;;;;;5080199;28;20044;-68
2022/07/06 07:09:40;;;;;;;5.13;1.00;;;;;;;;;;5086084;28;20056;-68
2022/07/06 07:12:06;;;;;;;4.28;0.80;;;;;;;;;;5082794;28;20083;-67
2022/07/06 07:14:32;;;;;;;3.95;0.90;;;;;;;;;;5086000;28;20105;-67
2022/07/06 07:16:58;;;;;;;3.47;0.98;;;;;;;;;;5085860;28;20129;-68
2022/07/06 07:19:24;;;;;;;5.57;1.00;;;;;;;;;;5084885;28;20049;-67
2022/07/06 07:21:50;;;;;;;3.85;0.80;;;;;;;;;;5085695;28;20116;-67
2022/07/06 07:24:17;;;;;;;7.00;0.90;;;;;;;;;;5083547;28;20112;-67
2022/07/06 07:26:43;;;;;;;5.05;1.10;;;;;;;;;;5081902;28;20131;-67
2022/07/06 07:29:09;;;;;;;3.92;0.95;;;;;;;;;;5076630;28;20128;-67
2022/07/06 07:31:35;;;;;;;3.72;0.73;;;;;;;;;;5075982;28;20044;-67
2022/07/06 07:34:01;;;;;;;4.38;0.70;;;;;;;;;;5069012;28;20051;-67
2022/07/06 07:36:27;;;;;;;5.50;0.70;;;;;;;;;;5067760;28;20041;-67
2022/07/06 07:38:53;;;;;;;4.75;1.20;;;;;;;;;;5065779;28;20045;-67
2022/07/06 07:41:20;;;;;;;4.53;0.95;;;;;;;;;;5081676;28;20052;-68
2022/07/06 07:43:46;;;;;;;4.43;1.13;;;;;;;;;;5065984;28;20530;-68
2022/07/06 07:46:12;;;;;;;6.78;1.05;;;;;;;;;;5084960;28;20063;-68
2022/07/06 07:48:38;;;;;;;5.10;0.82;;;;;;;;;;5074478;28;20041;-68
2022/07/06 07:51:04;;;;;;;5.10;0.70;;;;;;;;;;5091680;28;20072;-67
2022/07/06 07:53:30;;;;;;;2.60;0.60;;;;;;;;;;5065830;28;20060;-68
2022/07/06 07:55:56;;;;;;;6.90;0.95;;;;;;;;;;5065836;28;20079;-67
2022/07/06 07:58:23;;;;;;;4.63;0.65;;;;;;;;;;5081071;28;20068;-67
2022/07/06 08:00:49;;;;;;;3.78;0.60;;;;;;;;;;5065425;28;20113;-67
2022/07/06 08:03:15;;;;;;;3.08;0.70;;;;;;;;;;5084048;28;20098;-68
2022/07/06 08:05:41;;;;;;;3.33;0.65;;;;;;;;;;5079235;28;20047;-68
2022/07/06 08:08:07;;;;;;;3.65;0.60;;;;;;;;;;5083442;28;20040;-67
2022/07/06 08:10:34;;;;;;;2.25;0.32;;;;;;;;;;5079574;28;20066;-67
2022/07/06 08:13:00;;;;;;;4.20;0.50;;;;;;;;;;5076389;28;20051;-67
2022/07/06 08:15:26;;;;;;;3.53;0.50;;;;;;;;;;5084275;28;20454;-67
2022/07/06 08:17:52;;;;;;;2.45;0.55;;;;;;;;;;5099543;28;20059;-67
2022/07/06 08:20:18;;;;;;;5.75;0.70;;;;;;;;;;5082777;28;20048;-67
2022/07/06 08:22:45;;;;;;;5.30;0.55;;;;;;;;;;5079864;28;20104;-67
2022/07/06 08:25:11;;;;;;;2.15;0.40;;;;;;;;;;5082594;28;20044;-68
2022/07/06 08:27:37;;;;;;;8.25;1.25;;;;;;;;;;5085344;28;20040;-68
2022/07/06 08:30:04;;;;;;;1.38;0.40;;;;;;;;;;5085085;28;20125;-68
2022/07/06 08:32:30;;;;;;;3.47;0.52;;;;;;;;;;5084012;28;20040;-66
2022/07/06 08:34:56;;;;;;;1.35;0.30;;;;;;;;;;5084527;28;20094;-61
2022/07/06 08:37:22;;;;;;;3.40;0.70;;;;;;;;;;5084316;28;20052;-61
2022/07/06 08:39:49;;;;;;;2.92;0.50;;;;;;;;;;5092520;28;20515;-61
2022/07/06 08:42:16;;;;;;;3.83;0.73;;;;;;;;;;5083436;28;20072;-61
2022/07/06 08:44:44;;;;;;;2.95;0.80;;;;;;;;;;5082495;28;20500;-60
2022/07/06 08:47:10;;;;;;;2.30;0.60;;;;;;;;;;5084349;28;20052;-61
2022/07/06 08:49:37;;;;;;;5.63;0.60;;;;;;;;;;5083320;28;20047;-61
2022/07/06 08:52:04;;;;;;;4.55;0.95;;;;;;;;;;5069370;28;20056;-61
2022/07/06 08:54:30;;;;;;;5.47;0.80;;;;;;;;;;5081940;28;20036;-61
2022/07/06 08:56:56;;;;;;;3.35;0.60;;;;;;;;;;5079431;28;20044;-61
2022/07/06 08:59:22;;;;;;;2.97;0.40;;;;;;;;;;5068860;28;20120;-61
2022/07/06 09:01:48;;;;;;;2.53;0.70;;;;;;;;;;5083666;28;20121;-60
2022/07/06 09:04:19;;;;;;;1.00;0.32;;;;;;;;;;5099962;28;20036;-61
2022/07/06 09:06:47;;;;;;;1.35;0.40;;;;;;;;;;5084701;28;20041;-60
2022/07/06 09:09:16;;;;;;;4.22;0.50;;;;;;;;;;5085637;28;20048;-61
2022/07/06 09:11:42;;;;;;;4.25;0.63;;;;;;;;;;5086172;28;20044;-61
2022/07/06 09:14:08;;;;;;;3.60;0.80;;;;;;;;;;5082393;28;20057;-61
2022/07/06 09:16:35;;;;;;;5.50;1.15;;;;;;;;;;5085679;28;20123;-69
2022/07/06 09:19:01;;;;;;;2.90;0.45;;;;;;;;;;5100001;28;20044;-69
2022/07/06 09:21:32;;;;;;;4.13;0.68;;;;;;;;;;5072977;28;20044;-68
2022/07/06 09:24:00;;;;;;;2.70;0.60;;;;;;;;;;5068447;28;20092;-69
2022/07/06 09:26:26;;;;;;;3.38;0.68;;;;;;;;;;5077341;28;20040;-68
2022/07/06 09:28:52;;;;;;;3.83;1.00;;;;;;;;;;5068077;28;20149;-68
2022/07/06 09:31:18;;;;;;;4.22;0.65;;;;;;;;;;5071803;28;20051;-69
2022/07/06 09:33:55;;;;;;;1.98;0.40;;;;;;;;;;5063297;28;20048;-69
2022/07/06 09:36:40;;;;;;;3.53;0.60;;;;;;;;;;5064342;28;20068;-68
2022/07/06 09:39:16;;;;;;;2.83;0.40;;;;;;;;;;5064210;28;20044;-69
2022/07/06 09:41:42;;;;;;;3.45;0.77;;;;;;;;;;5075379;28;20060;-69
2022/07/06 09:44:10;;;;;;;3.78;0.50;;;;;;;;;;5072155;28;20047;-68
2022/07/06 09:46:43;;;;;;;4.03;0.93;;;;;;;;;;5067487;28;20056;-69
2022/07/06 09:49:09;;;;;;;5.30;1.17;;;;;;;;;;5067803;28;20049;-68
2022/07/06 09:51:39;;;;;;;3.35;0.70;;;;;;;;;;5079102;28;20112;-68
2022/07/06 09:54:08;;;;;;;3.75;0.55;;;;;;;;;;5100605;28;20044;-67
2022/07/06 09:56:41;;;;;;;5.60;1.20;;;;;;;;;;5068051;28;20044;-67
2022/07/06 09:59:11;;;;;;;5.40;0.90;;;;;;;;;;5083356;28;20059;-67
2022/07/06 10:01:40;;;;;;;3.88;0.77;;;;;;;;;;5073176;28;20388;-67
2022/07/06 10:04:07;;;;;;;5.28;0.73;;;;;;;;;;5094881;28;20482;-67
2022/07/06 10:06:34;;;;;;;6.07;0.80;;;;;;;;;;5075707;28;20033;-67
2022/07/06 10:09:00;;;;;;;4.10;0.80;;;;;;;;;;5085757;28;20049;-68
2022/07/06 10:11:28;;;;;;;6.10;0.88;;;;;;;;;;5082954;28;20140;-68
2022/07/06 10:13:58;;;;;;;4.18;0.80;;;;;;;;;;5067743;28;20088;-68
2022/07/06 10:16:24;;;;;;;5.35;1.00;;;;;;;;;;5068985;28;20041;-67
2022/07/06 10:18:53;;;;;;;2.83;0.70;;;;;;;;;;5085926;28;20135;-68
2022/07/06 10:21:19;;;;;;;5.78;0.75;;;;;;;;;;5077786;28;20052;-68
2022/07/06 10:23:46;;;;;;;2.97;0.60;;;;;;;;;;5069521;28;20394;-68
2022/07/06 10:26:12;;;;;;;4.13;0.77;;;;;;;;;;5088718;28;20046;-67
2022/07/06 10:28:39;;;;;;;2.85;0.65;;;;;;;;;;5078433;28;20068;-67
2022/07/06 10:31:05;;;;;;;13.23;1.50;;;;;;;;;;5073317;28;20040;-67
2022/07/06 10:33:32;;;;;;;4.35;0.90;;;;;;;;;;5081475;28;20051;-67
2022/07/06 10:35:59;;;;;;;1.38;0.70;;;;;;;;;;5082690;28;20116;-67
2022/07/06 10:38:35;;;;;;;6.25;0.73;;;;;;;;;;5067349;28;20049;-68
2022/07/06 10:41:06;;;;;;;5.43;0.70;;;;;;;;;;5067025;28;20115;-67
2022/07/06 10:43:33;;;;;;;3.40;0.88;;;;;;;;;;5078147;28;20080;-67
2022/07/06 10:45:59;;;;;;;4.78;0.60;;;;;;;;;;5069839;28;20124;-68
2022/07/06 10:48:25;;;;;;;3.60;0.60;;;;;;;;;;5066204;28;20066;-68
2022/07/06 10:50:55;;;;;;;5.07;0.68;;;;;;;;;;5069761;28;20041;-68
2022/07/06 10:53:28;;;;;;;3.50;0.90;;;;;;;;;;5085388;28;20060;-68
2022/07/06 10:55:55;;;;;;;5.50;0.80;;;;;;;;;;5067100;28;20056;-68
2022/07/06 10:58:41;;;;;;;3.47;0.80;;;;;;;;;;5082376;28;20102;-68
2022/07/06 11:01:08;;;;;;;3.88;1.05;;;;;;;;;;5072668;28;20084;-68
2022/07/06 11:03:42;;;;;;;2.38;0.40;;;;;;;;;;5078157;28;20055;-68
2022/07/06 11:06:15;;;;;;;6.90;1.17;;;;;;;;;;5067437;28;20053;-68
2022/07/06 11:08:47;;;;;;;2.03;0.82;;;;;;;;;;5078775;28;20057;-68
2022/07/06 11:11:16;;;;;;;2.42;0.50;;;;;;;;;;5081705;28;20036;-68
2022/07/06 11:13:43;;;;;;;3.50;0.73;;;;;;;;;;5080833;28;20366;-68
2022/07/06 11:16:09;;;;;;;3.50;0.65;;;;;;;;;;5066627;28;20045;-68
2022/07/06 11:18:42;;;;;;;3.55;1.10;;;;;;;;;;5096804;28;20059;-68
2022/07/06 11:21:21;;;;;;;2.00;0.77;;;;;;;;;;5077911;28;20037;-68
2022/07/06 11:23:48;;;;;;;4.57;0.63;;;;;;;;;;5081681;28;20061;-68
2022/07/06 11:26:15;;;;;;;2.60;1.15;;;;;;;;;;5074961;28;20080;-68
2022/07/06 11:28:41;;;;;;;4.40;1.30;;;;;;;;;;5071497;28;20060;-68
2022/07/06 11:31:07;;;;;;;2.08;0.45;;;;;;;;;;5074049;28;20052;-68
2022/07/06 11:33:33;;;;;;;2.28;0.60;;;;;;;;;;5065531;28;20048;-68
2022/07/06 11:36:19;;;;;;;4.22;0.75;;;;;;;;;;5107770;28;20084;-68
2022/07/06 11:38:46;;;;;;;3.45;0.88;;;;;;;;;;5066204;28;20060;-68
2022/07/06 11:41:14;;;;;;;6.10;0.80;;;;;;;;;;5066195;28;20049;-68
2022/07/06 11:43:42;;;;;;;;;;;;;;;;;;5067006;28;20056;-69
2022/07/06 11:46:35;;;;;;;2.50;1.00;;;;;;;;;;5087083;28;19920;-69
2022/07/06 11:49:05;;;;;;;5.47;0.93;;;;;;;;;;5068554;28;20416;-68
2022/07/06 11:51:33;;;;;;;5.32;0.68;;;;;;;;;;5088879;28;20045;-68
2022/07/06 11:54:00;;;;;;;4.60;0.65;;;;;;;;;;5065766;28;20067;-69
2022/07/06 11:56:29;;;;;;;4.50;0.98;;;;;;;;;;5070980;28;20048;-68
2022/07/06 11:58:59;;;;;;;2.95;0.90;;;;;;;;;;5084427;28;20040;-68
2022/07/06 12:01:27;;;;;;;1.50;0.57;;;;;;;;;;5078516;28;20056;-68
2022/07/06 12:03:54;;;;;;;3.05;0.45;;;;;;;;;;5077463;28;20060;-68
2022/07/06 12:06:22;;;;;;;1.42;0.60;;;;;;;;;;5072055;28;20099;-68
2022/07/06 12:08:52;;;;;;;5.50;1.52;;;;;;;;;;5074420;28;20049;-68
2022/07/06 12:11:23;;;;;;;2.70;0.70;;;;;;;;;;5085570;28;20051;-68
2022/07/06 12:13:50;;;;;;;1.70;0.65;;;;;;;;;;5077197;28;20040;-68
2022/07/06 12:16:16;;;;;;;2.88;0.73;;;;;;;;;;5065571;28;20190;-68
2022/07/06 12:18:43;;;;;;;1.90;0.63;;;;;;;;;;5080018;28;20117;-68
2022/07/06 12:21:11;;;;;;;3.80;0.70;;;;;;;;;;5065483;28;20234;-68
2022/07/06 12:23:44;;;;;;;0.93;0.40;;;;;;;;;;5068218;28;20041;-67
2022/07/06 12:26:10;;;;;;;1.70;0.55;;;;;;;;;;5065112;28;20049;-68
2022/07/06 12:28:37;;;;;;;3.00;0.68;;;;;;;;;;5065076;28;20378;-67
2022/07/06 12:31:04;;;;;;;1.30;0.73;;;;;;;;;;5089536;28;20102;-67
2022/07/06 12:33:30;;;;;;;3.67;0.57;;;;;;;;;;5064282;28;20283;-67
2022/07/06 12:35:56;;;;;;;1.98;0.57;;;;;;;;;;5083436;28;20075;-67
2022/07/06 12:38:23;;;;;;;3.55;1.00;;;;;;;;;;5074622;28;20048;-68
2022/07/06 12:40:49;;;;;;;2.13;0.55;;;;;;;;;;5067402;28;20049;-68
2022/07/06 12:43:34;;;;;;;5.10;0.70;;;;;;;;;;5076007;28;20423;-68
2022/07/06 12:46:20;;;;;;;2.80;0.55;;;;;;;;;;5080365;28;20053;-68
2022/07/06 12:48:53;;;;;;;3.55;0.90;;;;;;;;;;5081120;28;20063;-68
2022/07/06 12:51:19;;;;;;;2.92;0.90;;;;;;;;;;5066489;28;20110;-68
2022/07/06 12:53:45;;;;;;;3.05;0.80;;;;;;;;;;5064633;28;20093;-68
2022/07/06 12:56:12;;;;;;;4.90;1.30;;;;;;;;;;5064754;28;20506;-67
2022/07/06 12:58:38;;;;;;;3.85;1.05;;;;;;;;;;5064667;28;20056;-67
2022/07/06 13:01:04;;;;;;;4.15;0.65;;;;;;;;;;5064539;28;20064;-68
2022/07/06 13:03:40;;;;;;;3.38;0.65;;;;;;;;;;5079401;28;20111;-67
2022/07/06 13:06:06;;;;;;;2.10;0.70;;;;;;;;;;5079936;28;20095;-68
2022/07/06 13:08:32;;;;;;;1.50;0.60;;;;;;;;;;5071833;28;20049;-68
2022/07/06 13:10:58;;;;;;;0.47;0.38;;;;;;;;;;5080139;28;20108;-68
2022/07/06 13:13:24;;;;;;;4.60;0.85;;;;;;;;;;5080324;28;20108;-68
2022/07/06 13:15:50;;;;;;;2.83;0.70;;;;;;;;;;5078750;28;20136;-68
2022/07/06 13:18:19;;;;;;;3.90;0.50;;;;;;;;;;5085426;28;20096;-68
2022/07/06 13:20:45;;;;;;;1.38;0.40;;;;;;;;;;5092114;28;20076;-67
2022/07/06 13:23:11;;;;;;;2.47;0.57;;;;;;;;;;5077637;28;20063;-68
2022/07/06 13:25:37;;;;;;;1.60;0.90;;;;;;;;;;5075917;28;20041;-64
2022/07/06 13:28:03;;;;;;;1.95;0.70;;;;;;;;;;5064192;28;20119;-58
2022/07/06 13:30:29;;;;;;;3.95;1.02;;;;;;;;;;5083993;28;20038;-62
2022/07/06 13:32:56;;;;;;;5.53;1.10;;;;;;;;;;5074858;28;20045;-62
2022/07/06 13:35:22;;;;;;;4.90;0.77;;;;;;;;;;5079499;28;20040;-61
2022/07/06 13:37:50;;;;;;;3.50;0.90;;;;;;;;;;5064043;28;20504;-61
2022/07/06 13:40:16;;;;;;;2.72;0.73;;;;;;;;;;5075405;28;20058;-61
2022/07/06 13:42:42;;;;;;;2.25;0.70;;;;;;;;;;5068715;28;20048;-61
2022/07/06 13:45:09;;;;;;;3.80;0.82;;;;;;;;;;5088078;28;20051;-63
2022/07/06 13:47:35;;;;;;;3.35;0.60;;;;;;;;;;5081171;28;20044;-63
2022/07/06 13:50:01;;;;;;;3.95;1.23;;;;;;;;;;5064542;28;20560;-63
2022/07/06 13:52:27;;;;;;;2.40;0.73;;;;;;;;;;5079139;28;20246;-63
2022/07/06 13:54:53;;;;;;;4.15;0.75;;;;;;;;;;5064264;28;20045;-62
2022/07/06 13:57:19;;;;;;;1.77;0.70;;;;;;;;;;5069768;28;20044;-61
2022/07/06 13:59:46;;;;;;;3.05;0.70;;;;;;;;;;5065326;28;20045;-62
2022/07/06 14:02:12;;;;;;;2.35;0.60;;;;;;;;;;5088776;28;20108;-62
2022/07/06 14:04:38;;;;;;;3.50;0.80;;;;;;;;;;5073439;28;20419;-62
2022/07/06 14:07:05;;;;;;;4.30;0.82;;;;;;;;;;5085864;28;20354;-62
2022/07/06 14:09:31;;;;;;;3.42;0.90;;;;;;;;;;5083127;28;20048;-62
2022/07/06 14:11:57;;;;;;;2.90;0.85;;;;;;;;;;5080077;28;20045;-62
2022/07/06 14:14:23;;;;;;;4.80;1.35;;;;;;;;;;5081154;28;20098;-61
2022/07/06 14:16:50;;;;;;;2.25;0.70;;;;;;;;;;5076325;28;20596;-62
2022/07/06 14:19:17;;;;;;;3.35;0.60;;;;;;;;;;5081111;28;20404;-62
2022/07/06 14:21:45;;;;;;;3.92;0.73;;;;;;;;;;5075763;28;20052;-61
2022/07/06 14:24:11;;;;;;;3.28;0.65;;;;;;;;;;5093299;28;20435;-63
2022/07/06 14:26:37;;;;;;;4.38;0.80;;;;;;;;;;5079402;28;20435;-61
2022/07/06 14:29:03;;;;;;;4.50;1.17;;;;;;;;;;5076813;28;20029;-62
2022/07/06 14:31:30;;;;;;;3.60;0.80;;;;;;;;;;5077096;28;20127;-62
2022/07/06 14:33:56;;;;;;;6.10;0.93;;;;;;;;;;5084923;28;20051;-62
2022/07/06 14:36:22;;;;;;;2.50;1.00;;;;;;;;;;5089195;28;20301;-62
2022/07/06 14:38:48;;;;;;;3.92;0.90;;;;;;;;;;5100172;28;20055;-62
2022/07/06 14:41:14;;;;;;;4.97;1.10;;;;;;;;;;5102359;28;20040;-62
2022/07/06 14:43:40;;;;;;;3.08;1.27;;;;;;;;;;5099280;28;20060;-62
2022/07/06 14:46:07;;;;;;;5.20;1.00;;;;;;;;;;5087749;28;20064;-62